sensor_id;sensor_type;location;lat;lon;timestamp;temperature;humidity
67820;DHT22;54618;52.018;5.576;2023-05-14T00:01:44;21.10;56.60
67820;DHT22;54618;52.018;5.576;2023-05-14T00:04:11;21.00;56.50
67820;DHT22;54618;52.018;5.576;2023-05-14T00:06:36;21.00;56.60
67820;DHT22;54618;52.018;5.576;2023-05-14T00:09:02;21.00;56.60
67820;DHT22;54618;52.018;5.576;2023-05-14T00:11:28;21.00;56.60
67820;DHT22;54618;52.018;5.576;2023-05-14T00:13:54;21.00;56.60
67820;DHT22;54618;52.018;5.576;2023-05-14T00:16:19;21.00;56.60
67820;DHT22;54618;52.018;5.576;2023-05-14T00:18:45;21.00;56.60
67820;DHT22;54618;52.018;5.576;2023-05-14T00:21:11;21.00;56.50
67820;DHT22;54618;52.018;5.576;2023-05-14T00:23:37;21.00;56.60
67820;DHT22;54618;52.018;5.576;2023-05-14T00:26:02;21.00;56.60
67820;DHT22;54618;52.018;5.576;2023-05-14T00:28:28;21.00;56.60
67820;DHT22;54618;52.018;5.576;2023-05-14T00:30:53;20.90;56.50
67820;DHT22;54618;52.018;5.576;2023-05-14T00:33:21;20.90;56.50
67820;DHT22;54618;52.018;5.576;2023-05-14T00:35:47;21.00;56.60
67820;DHT22;54618;52.018;5.576;2023-05-14T00:38:13;20.90;56.50
67820;DHT22;54618;52.018;5.576;2023-05-14T00:40:42;20.90;56.50
67820;DHT22;54618;52.018;5.576;2023-05-14T00:43:10;20.90;56.60
67820;DHT22;54618;52.018;5.576;2023-05-14T00:45:36;20.90;56.50
67820;DHT22;54618;52.018;5.576;2023-05-14T00:48:02;20.90;56.50
67820;DHT22;54618;52.018;5.576;2023-05-14T00:50:28;20.90;56.50
67820;DHT22;54618;52.018;5.576;2023-05-14T00:52:53;20.90;56.50
67820;DHT22;54618;52.018;5.576;2023-05-14T00:55:20;20.90;56.50
67820;DHT22;54618;52.018;5.576;2023-05-14T00:57:46;20.90;56.50
67820;DHT22;54618;52.018;5.576;2023-05-14T01:00:11;20.90;56.50
67820;DHT22;54618;52.018;5.576;2023-05-14T01:02:37;20.80;56.40
67820;DHT22;54618;52.018;5.576;2023-05-14T01:05:03;20.90;56.50
67820;DHT22;54618;52.018;5.576;2023-05-14T01:15:47;20.90;56.50
67820;DHT22;54618;52.018;5.576;2023-05-14T01:18:16;20.90;56.50
67820;DHT22;54618;52.018;5.576;2023-05-14T01:20:43;20.80;56.40
67820;DHT22;54618;52.018;5.576;2023-05-14T01:23:09;20.80;56.40
67820;DHT22;54618;52.018;5.576;2023-05-14T01:25:34;20.80;56.40
67820;DHT22;54618;52.018;5.576;2023-05-14T01:28:19;20.80;56.40
67820;DHT22;54618;52.018;5.576;2023-05-14T01:31:01;20.80;56.40
67820;DHT22;54618;52.018;5.576;2023-05-14T01:33:32;20.80;56.50
67820;DHT22;54618;52.018;5.576;2023-05-14T01:35:58;20.80;56.50
67820;DHT22;54618;52.018;5.576;2023-05-14T01:38:24;20.80;56.40
67820;DHT22;54618;52.018;5.576;2023-05-14T01:40:52;20.80;56.40
67820;DHT22;54618;52.018;5.576;2023-05-14T01:43:18;20.80;56.40
67820;DHT22;54618;52.018;5.576;2023-05-14T01:45:45;20.80;56.40
67820;DHT22;54618;52.018;5.576;2023-05-14T01:48:11;20.80;56.40
67820;DHT22;54618;52.018;5.576;2023-05-14T01:50:36;20.80;56.40
67820;DHT22;54618;52.018;5.576;2023-05-14T01:53:02;20.70;56.40
67820;DHT22;54618;52.018;5.576;2023-05-14T01:55:27;20.80;56.40
67820;DHT22;54618;52.018;5.576;2023-05-14T01:57:53;20.70;56.40
67820;DHT22;54618;52.018;5.576;2023-05-14T02:00:19;20.70;56.40
67820;DHT22;54618;52.018;5.576;2023-05-14T02:02:45;20.80;56.40
67820;DHT22;54618;52.018;5.576;2023-05-14T02:05:12;20.70;56.30
67820;DHT22;54618;52.018;5.576;2023-05-14T02:07:38;20.70;57.00
67820;DHT22;54618;52.018;5.576;2023-05-14T02:10:04;20.70;56.40
67820;DHT22;54618;52.018;5.576;2023-05-14T02:12:29;20.70;56.30
67820;DHT22;54618;52.018;5.576;2023-05-14T02:14:55;20.70;56.40
67820;DHT22;54618;52.018;5.576;2023-05-14T02:17:20;20.70;56.40
67820;DHT22;54618;52.018;5.576;2023-05-14T02:19:46;20.70;56.30
67820;DHT22;54618;52.018;5.576;2023-05-14T02:22:12;20.70;56.30
67820;DHT22;54618;52.018;5.576;2023-05-14T02:24:38;20.70;56.40
67820;DHT22;54618;52.018;5.576;2023-05-14T02:27:03;20.70;56.40
67820;DHT22;54618;52.018;5.576;2023-05-14T02:29:29;20.70;56.30
67820;DHT22;54618;52.018;5.576;2023-05-14T02:31:55;20.70;57.00
67820;DHT22;54618;52.018;5.576;2023-05-14T02:34:20;20.70;56.40
67820;DHT22;54618;52.018;5.576;2023-05-14T02:36:46;20.70;56.30
67820;DHT22;54618;52.018;5.576;2023-05-14T02:39:12;20.60;56.30
67820;DHT22;54618;52.018;5.576;2023-05-14T02:41:37;20.60;56.30
67820;DHT22;54618;52.018;5.576;2023-05-14T02:44:03;20.60;56.30
67820;DHT22;54618;52.018;5.576;2023-05-14T02:46:30;20.60;56.30
67820;DHT22;54618;52.018;5.576;2023-05-14T02:48:55;20.60;56.30
67820;DHT22;54618;52.018;5.576;2023-05-14T02:51:21;20.60;56.30
67820;DHT22;54618;52.018;5.576;2023-05-14T02:53:47;20.60;56.30
67820;DHT22;54618;52.018;5.576;2023-05-14T02:56:12;20.60;56.30
67820;DHT22;54618;52.018;5.576;2023-05-14T02:58:38;20.60;56.30
67820;DHT22;54618;52.018;5.576;2023-05-14T03:01:04;20.60;56.30
67820;DHT22;54618;52.018;5.576;2023-05-14T03:03:30;20.60;56.30
67820;DHT22;54618;52.018;5.576;2023-05-14T03:05:55;20.60;56.30
67820;DHT22;54618;52.018;5.576;2023-05-14T03:08:21;20.60;56.20
67820;DHT22;54618;52.018;5.576;2023-05-14T03:10:46;20.60;56.20
67820;DHT22;54618;52.018;5.576;2023-05-14T03:13:12;20.60;56.30
67820;DHT22;54618;52.018;5.576;2023-05-14T03:15:42;20.60;56.30
67820;DHT22;54618;52.018;5.576;2023-05-14T03:18:08;20.60;56.30
67820;DHT22;54618;52.018;5.576;2023-05-14T03:20:33;20.60;56.30
67820;DHT22;54618;52.018;5.576;2023-05-14T03:22:59;20.60;56.30
67820;DHT22;54618;52.018;5.576;2023-05-14T03:25:25;20.60;56.30
67820;DHT22;54618;52.018;5.576;2023-05-14T03:27:50;20.50;56.20
67820;DHT22;54618;52.018;5.576;2023-05-14T03:30:16;20.50;56.20
67820;DHT22;54618;52.018;5.576;2023-05-14T03:32:42;20.60;56.30
67820;DHT22;54618;52.018;5.576;2023-05-14T03:35:08;20.50;56.20
67820;DHT22;54618;52.018;5.576;2023-05-14T03:37:33;20.50;56.20
67820;DHT22;54618;52.018;5.576;2023-05-14T03:39:59;20.50;56.20
67820;DHT22;54618;52.018;5.576;2023-05-14T03:42:24;20.50;56.20
67820;DHT22;54618;52.018;5.576;2023-05-14T03:44:50;20.50;56.20
67820;DHT22;54618;52.018;5.576;2023-05-14T03:47:15;20.50;56.20
67820;DHT22;54618;52.018;5.576;2023-05-14T03:49:41;20.50;56.20
67820;DHT22;54618;52.018;5.576;2023-05-14T03:52:07;20.50;56.20
67820;DHT22;54618;52.018;5.576;2023-05-14T03:54:32;20.50;56.20
67820;DHT22;54618;52.018;5.576;2023-05-14T03:56:58;20.50;56.20
67820;DHT22;54618;52.018;5.576;2023-05-14T03:59:23;20.50;56.20
67820;DHT22;54618;52.018;5.576;2023-05-14T04:01:49;20.50;56.20
67820;DHT22;54618;52.018;5.576;2023-05-14T04:04:15;20.50;56.20
67820;DHT22;54618;52.018;5.576;2023-05-14T04:06:40;20.50;56.20
67820;DHT22;54618;52.018;5.576;2023-05-14T04:09:06;20.50;56.20
67820;DHT22;54618;52.018;5.576;2023-05-14T04:11:31;20.40;56.20
67820;DHT22;54618;52.018;5.576;2023-05-14T04:13:57;20.40;56.20
67820;DHT22;54618;52.018;5.576;2023-05-14T04:16:22;20.50;56.30
67820;DHT22;54618;52.018;5.576;2023-05-14T04:18:48;20.40;56.20
67820;DHT22;54618;52.018;5.576;2023-05-14T04:21:13;20.40;56.20
67820;DHT22;54618;52.018;5.576;2023-05-14T04:23:39;20.40;56.20
67820;DHT22;54618;52.018;5.576;2023-05-14T04:26:04;20.40;56.20
67820;DHT22;54618;52.018;5.576;2023-05-14T04:28:30;20.40;56.20
67820;DHT22;54618;52.018;5.576;2023-05-14T04:30:56;20.40;56.20
67820;DHT22;54618;52.018;5.576;2023-05-14T04:33:22;20.40;56.20
67820;DHT22;54618;52.018;5.576;2023-05-14T04:35:47;20.40;56.10
67820;DHT22;54618;52.018;5.576;2023-05-14T04:38:13;20.40;56.20
67820;DHT22;54618;52.018;5.576;2023-05-14T04:40:38;20.40;56.20
67820;DHT22;54618;52.018;5.576;2023-05-14T04:43:05;20.40;56.10
67820;DHT22;54618;52.018;5.576;2023-05-14T04:45:32;20.40;56.10
67820;DHT22;54618;52.018;5.576;2023-05-14T04:47:57;20.40;56.10
67820;DHT22;54618;52.018;5.576;2023-05-14T04:50:23;20.40;56.10
67820;DHT22;54618;52.018;5.576;2023-05-14T04:52:48;20.40;56.70
67820;DHT22;54618;52.018;5.576;2023-05-14T04:55:14;20.40;56.70
67820;DHT22;54618;52.018;5.576;2023-05-14T04:57:39;20.40;56.20
67820;DHT22;54618;52.018;5.576;2023-05-14T05:00:05;20.40;56.10
67820;DHT22;54618;52.018;5.576;2023-05-14T05:02:32;20.40;56.10
67820;DHT22;54618;52.018;5.576;2023-05-14T05:04:59;20.40;56.20
67820;DHT22;54618;52.018;5.576;2023-05-14T05:07:24;20.40;56.10
67820;DHT22;54618;52.018;5.576;2023-05-14T05:09:50;20.40;56.10
67820;DHT22;54618;52.018;5.576;2023-05-14T05:12:15;20.40;56.20
67820;DHT22;54618;52.018;5.576;2023-05-14T05:14:41;20.40;56.10
67820;DHT22;54618;52.018;5.576;2023-05-14T05:17:06;20.40;56.10
67820;DHT22;54618;52.018;5.576;2023-05-14T05:19:32;20.40;56.10
67820;DHT22;54618;52.018;5.576;2023-05-14T05:21:57;20.40;56.10
67820;DHT22;54618;52.018;5.576;2023-05-14T05:24:23;20.40;56.40
67820;DHT22;54618;52.018;5.576;2023-05-14T05:26:48;20.40;56.10
67820;DHT22;54618;52.018;5.576;2023-05-14T05:29:16;20.40;56.10
67820;DHT22;54618;52.018;5.576;2023-05-14T05:31:42;20.40;56.10
67820;DHT22;54618;52.018;5.576;2023-05-14T05:34:07;20.40;56.10
67820;DHT22;54618;52.018;5.576;2023-05-14T05:36:33;20.40;56.10
67820;DHT22;54618;52.018;5.576;2023-05-14T05:38:59;20.60;56.00
67820;DHT22;54618;52.018;5.576;2023-05-14T05:41:24;20.80;55.80
67820;DHT22;54618;52.018;5.576;2023-05-14T05:43:51;21.00;55.60
67820;DHT22;54618;52.018;5.576;2023-05-14T05:46:18;21.10;55.20
67820;DHT22;54618;52.018;5.576;2023-05-14T05:48:43;21.30;55.10
67820;DHT22;54618;52.018;5.576;2023-05-14T05:51:09;21.30;55.10
67820;DHT22;54618;52.018;5.576;2023-05-14T05:53:35;21.30;55.10
67820;DHT22;54618;52.018;5.576;2023-05-14T05:56:00;21.40;55.00
67820;DHT22;54618;52.018;5.576;2023-05-14T05:58:26;21.40;54.90
67820;DHT22;54618;52.018;5.576;2023-05-14T06:00:51;21.40;54.90
67820;DHT22;54618;52.018;5.576;2023-05-14T06:03:17;21.50;54.90
67820;DHT22;54618;52.018;5.576;2023-05-14T06:05:43;21.60;54.80
67820;DHT22;54618;52.018;5.576;2023-05-14T06:08:09;21.60;54.70
67820;DHT22;54618;52.018;5.576;2023-05-14T06:10:34;21.60;54.70
67820;DHT22;54618;52.018;5.576;2023-05-14T06:13:00;21.60;54.90
67820;DHT22;54618;52.018;5.576;2023-05-14T06:15:26;21.60;54.80
67820;DHT22;54618;52.018;5.576;2023-05-14T06:17:51;21.70;54.70
67820;DHT22;54618;52.018;5.576;2023-05-14T06:20:17;21.70;54.80
67820;DHT22;54618;52.018;5.576;2023-05-14T06:22:43;21.60;54.80
67820;DHT22;54618;52.018;5.576;2023-05-14T06:25:09;21.60;54.90
67820;DHT22;54618;52.018;5.576;2023-05-14T06:27:35;21.70;54.80
67820;DHT22;54618;52.018;5.576;2023-05-14T06:30:00;21.80;54.80
67820;DHT22;54618;52.018;5.576;2023-05-14T06:32:26;21.70;54.70
67820;DHT22;54618;52.018;5.576;2023-05-14T06:34:51;21.70;54.80
67820;DHT22;54618;52.018;5.576;2023-05-14T06:37:17;21.80;54.80
67820;DHT22;54618;52.018;5.576;2023-05-14T06:39:42;21.80;54.70
67820;DHT22;54618;52.018;5.576;2023-05-14T06:42:14;21.80;54.70
67820;DHT22;54618;52.018;5.576;2023-05-14T06:44:40;21.70;54.70
67820;DHT22;54618;52.018;5.576;2023-05-14T06:47:05;21.70;54.80
67820;DHT22;54618;52.018;5.576;2023-05-14T06:49:33;21.80;54.80
67820;DHT22;54618;52.018;5.576;2023-05-14T06:51:59;21.80;54.60
67820;DHT22;54618;52.018;5.576;2023-05-14T06:54:24;21.80;54.70
67820;DHT22;54618;52.018;5.576;2023-05-14T06:56:50;21.80;54.70
67820;DHT22;54618;52.018;5.576;2023-05-14T06:59:15;21.80;54.80
67820;DHT22;54618;52.018;5.576;2023-05-14T07:01:40;21.80;54.70
67820;DHT22;54618;52.018;5.576;2023-05-14T07:04:06;21.90;55.20
67820;DHT22;54618;52.018;5.576;2023-05-14T07:06:32;21.90;54.60
67820;DHT22;54618;52.018;5.576;2023-05-14T07:08:58;21.80;54.70
67820;DHT22;54618;52.018;5.576;2023-05-14T07:11:23;21.80;54.70
67820;DHT22;54618;52.018;5.576;2023-05-14T07:13:49;21.90;54.70
67820;DHT22;54618;52.018;5.576;2023-05-14T07:16:14;22.00;54.60
67820;DHT22;54618;52.018;5.576;2023-05-14T07:18:40;22.00;54.50
67820;DHT22;54618;52.018;5.576;2023-05-14T07:21:05;21.90;55.10
67820;DHT22;54618;52.018;5.576;2023-05-14T07:23:32;21.90;54.60
67820;DHT22;54618;52.018;5.576;2023-05-14T07:26:00;22.00;54.50
67820;DHT22;54618;52.018;5.576;2023-05-14T07:28:25;22.10;54.40
67820;DHT22;54618;52.018;5.576;2023-05-14T07:30:51;22.00;54.40
67820;DHT22;54618;52.018;5.576;2023-05-14T07:33:16;22.00;54.40
67820;DHT22;54618;52.018;5.576;2023-05-14T07:35:42;22.00;54.40
67820;DHT22;54618;52.018;5.576;2023-05-14T07:38:08;22.20;54.40
67820;DHT22;54618;52.018;5.576;2023-05-14T07:40:33;22.20;54.20
67820;DHT22;54618;52.018;5.576;2023-05-14T07:42:59;22.30;54.10
67820;DHT22;54618;52.018;5.576;2023-05-14T07:45:24;22.30;54.20
67820;DHT22;54618;52.018;5.576;2023-05-14T07:47:50;22.20;54.10
67820;DHT22;54618;52.018;5.576;2023-05-14T07:50:17;22.20;54.20
67820;DHT22;54618;52.018;5.576;2023-05-14T07:52:43;22.30;54.20
67820;DHT22;54618;52.018;5.576;2023-05-14T07:55:09;22.50;54.10
67820;DHT22;54618;52.018;5.576;2023-05-14T07:57:35;22.50;53.90
67820;DHT22;54618;52.018;5.576;2023-05-14T08:00:02;22.50;53.90
67820;DHT22;54618;52.018;5.576;2023-05-14T08:02:27;22.50;54.00
67820;DHT22;54618;52.018;5.576;2023-05-14T08:04:53;22.50;54.00
67820;DHT22;54618;52.018;5.576;2023-05-14T08:07:19;22.50;54.20
67820;DHT22;54618;52.018;5.576;2023-05-14T08:09:45;22.50;54.30
67820;DHT22;54618;52.018;5.576;2023-05-14T08:12:11;22.60;54.40
67820;DHT22;54618;52.018;5.576;2023-05-14T08:14:37;22.50;54.10
67820;DHT22;54618;52.018;5.576;2023-05-14T08:17:02;22.50;54.20
67820;DHT22;54618;52.018;5.576;2023-05-14T08:19:28;22.70;54.20
67820;DHT22;54618;52.018;5.576;2023-05-14T08:21:53;22.80;54.00
67820;DHT22;54618;52.018;5.576;2023-05-14T08:24:19;22.90;54.00
67820;DHT22;54618;52.018;5.576;2023-05-14T08:26:45;22.90;54.00
67820;DHT22;54618;52.018;5.576;2023-05-14T08:29:10;22.80;53.90
67820;DHT22;54618;52.018;5.576;2023-05-14T08:31:36;22.80;54.00
67820;DHT22;54618;52.018;5.576;2023-05-14T08:34:02;22.80;54.20
67820;DHT22;54618;52.018;5.576;2023-05-14T08:36:27;22.70;54.20
67820;DHT22;54618;52.018;5.576;2023-05-14T08:38:53;22.70;54.20
67820;DHT22;54618;52.018;5.576;2023-05-14T08:41:18;22.70;54.30
67820;DHT22;54618;52.018;5.576;2023-05-14T08:46:42;23.00;54.00
67820;DHT22;54618;52.018;5.576;2023-05-14T08:49:14;23.10;54.00
67820;DHT22;54618;52.018;5.576;2023-05-14T08:51:46;23.10;54.00
67820;DHT22;54618;52.018;5.576;2023-05-14T08:54:14;23.20;54.10
67820;DHT22;54618;52.018;5.576;2023-05-14T08:56:45;23.20;54.10
67820;DHT22;54618;52.018;5.576;2023-05-14T08:59:11;23.20;54.10
67820;DHT22;54618;52.018;5.576;2023-05-14T09:01:37;23.20;54.20
67820;DHT22;54618;52.018;5.576;2023-05-14T09:04:05;23.10;54.20
67820;DHT22;54618;52.018;5.576;2023-05-14T09:06:36;23.10;54.40
67820;DHT22;54618;52.018;5.576;2023-05-14T09:09:02;23.10;54.40
67820;DHT22;54618;52.018;5.576;2023-05-14T09:11:28;23.10;54.50
67820;DHT22;54618;52.018;5.576;2023-05-14T09:13:54;23.10;54.50
67820;DHT22;54618;52.018;5.576;2023-05-14T09:16:19;23.10;54.50
67820;DHT22;54618;52.018;5.576;2023-05-14T09:18:46;23.10;54.50
67820;DHT22;54618;52.018;5.576;2023-05-14T09:21:13;23.00;54.40
67820;DHT22;54618;52.018;5.576;2023-05-14T09:23:41;23.00;54.50
67820;DHT22;54618;52.018;5.576;2023-05-14T09:26:10;22.90;54.40
67820;DHT22;54618;52.018;5.576;2023-05-14T09:28:39;22.90;54.00
67820;DHT22;54618;52.018;5.576;2023-05-14T09:31:06;22.80;54.50
67820;DHT22;54618;52.018;5.576;2023-05-14T09:33:31;22.70;54.60
67820;DHT22;54618;52.018;5.576;2023-05-14T09:35:58;22.70;54.70
67820;DHT22;54618;52.018;5.576;2023-05-14T09:38:31;22.70;54.80
67820;DHT22;54618;52.018;5.576;2023-05-14T09:40:57;22.60;54.70
67820;DHT22;54618;52.018;5.576;2023-05-14T09:43:23;22.60;54.80
67820;DHT22;54618;52.018;5.576;2023-05-14T09:45:49;22.50;54.70
67820;DHT22;54618;52.018;5.576;2023-05-14T09:48:15;22.50;54.80
67820;DHT22;54618;52.018;5.576;2023-05-14T09:50:42;22.50;54.90
67820;DHT22;54618;52.018;5.576;2023-05-14T09:53:07;22.50;54.90
67820;DHT22;54618;52.018;5.576;2023-05-14T09:55:38;22.40;54.90
67820;DHT22;54618;52.018;5.576;2023-05-14T09:58:04;22.40;54.90
67820;DHT22;54618;52.018;5.576;2023-05-14T10:00:34;22.40;55.00
67820;DHT22;54618;52.018;5.576;2023-05-14T10:03:04;22.40;55.00
67820;DHT22;54618;52.018;5.576;2023-05-14T10:05:34;22.30;54.90
67820;DHT22;54618;52.018;5.576;2023-05-14T10:08:04;22.30;55.00
67820;DHT22;54618;52.018;5.576;2023-05-14T10:10:34;22.30;55.00
67820;DHT22;54618;52.018;5.576;2023-05-14T10:13:05;22.30;55.00
67820;DHT22;54618;52.018;5.576;2023-05-14T10:15:58;22.30;55.20
67820;DHT22;54618;52.018;5.576;2023-05-14T10:18:26;22.30;55.00
67820;DHT22;54618;52.018;5.576;2023-05-14T10:21:03;22.20;55.10
67820;DHT22;54618;52.018;5.576;2023-05-14T10:23:29;22.20;55.10
67820;DHT22;54618;52.018;5.576;2023-05-14T10:25:56;22.20;55.10
67820;DHT22;54618;52.018;5.576;2023-05-14T10:28:22;22.20;55.10
67820;DHT22;54618;52.018;5.576;2023-05-14T10:30:48;22.20;55.20
67820;DHT22;54618;52.018;5.576;2023-05-14T10:33:14;22.20;55.20
67820;DHT22;54618;52.018;5.576;2023-05-14T10:36:01;22.20;55.20
67820;DHT22;54618;52.018;5.576;2023-05-14T10:38:34;22.20;55.30
67820;DHT22;54618;52.018;5.576;2023-05-14T10:41:06;22.20;55.40
67820;DHT22;54618;52.018;5.576;2023-05-14T10:43:38;22.20;55.50
67820;DHT22;54618;52.018;5.576;2023-05-14T10:46:05;22.20;55.40
67820;DHT22;54618;52.018;5.576;2023-05-14T10:48:31;22.20;55.30
67820;DHT22;54618;52.018;5.576;2023-05-14T10:50:57;22.10;55.20
67820;DHT22;54618;52.018;5.576;2023-05-14T10:53:41;22.10;55.30
67820;DHT22;54618;52.018;5.576;2023-05-14T10:56:09;22.10;55.30
67820;DHT22;54618;52.018;5.576;2023-05-14T10:58:36;22.10;55.30
67820;DHT22;54618;52.018;5.576;2023-05-14T11:01:03;22.10;55.30
67820;DHT22;54618;52.018;5.576;2023-05-14T11:03:30;22.10;55.30
67820;DHT22;54618;52.018;5.576;2023-05-14T11:05:56;22.10;55.30
67820;DHT22;54618;52.018;5.576;2023-05-14T11:08:25;22.10;55.90
67820;DHT22;54618;52.018;5.576;2023-05-14T11:10:51;22.10;55.90
67820;DHT22;54618;52.018;5.576;2023-05-14T11:13:18;22.10;55.40
67820;DHT22;54618;52.018;5.576;2023-05-14T11:15:44;22.10;55.50
67820;DHT22;54618;52.018;5.576;2023-05-14T11:18:12;22.10;55.50
67820;DHT22;54618;52.018;5.576;2023-05-14T11:20:38;22.10;55.50
67820;DHT22;54618;52.018;5.576;2023-05-14T11:23:04;22.10;55.60
67820;DHT22;54618;52.018;5.576;2023-05-14T11:25:29;22.10;55.70
67820;DHT22;54618;52.018;5.576;2023-05-14T11:27:55;22.10;55.60
67820;DHT22;54618;52.018;5.576;2023-05-14T11:30:23;22.10;55.60
67820;DHT22;54618;52.018;5.576;2023-05-14T11:32:49;22.10;55.60
67820;DHT22;54618;52.018;5.576;2023-05-14T11:35:16;22.10;55.70
67820;DHT22;54618;52.018;5.576;2023-05-14T11:37:48;22.10;55.80
67820;DHT22;54618;52.018;5.576;2023-05-14T11:40:14;22.10;55.70
67820;DHT22;54618;52.018;5.576;2023-05-14T11:42:40;22.10;55.60
67820;DHT22;54618;52.018;5.576;2023-05-14T11:45:09;22.10;55.50
67820;DHT22;54618;52.018;5.576;2023-05-14T11:47:36;22.10;55.50
67820;DHT22;54618;52.018;5.576;2023-05-14T11:50:02;22.10;55.50
67820;DHT22;54618;52.018;5.576;2023-05-14T11:52:28;22.10;55.50
67820;DHT22;54618;52.018;5.576;2023-05-14T11:54:53;22.10;55.50
67820;DHT22;54618;52.018;5.576;2023-05-14T11:57:20;22.00;55.50
67820;DHT22;54618;52.018;5.576;2023-05-14T11:59:47;22.00;55.50
67820;DHT22;54618;52.018;5.576;2023-05-14T12:02:15;22.00;55.50
67820;DHT22;54618;52.018;5.576;2023-05-14T12:04:43;22.00;55.60
67820;DHT22;54618;52.018;5.576;2023-05-14T12:07:14;22.00;55.50
67820;DHT22;54618;52.018;5.576;2023-05-14T12:09:44;22.00;55.50
67820;DHT22;54618;52.018;5.576;2023-05-14T12:12:17;22.00;55.60
67820;DHT22;54618;52.018;5.576;2023-05-14T12:14:43;22.00;55.60
67820;DHT22;54618;52.018;5.576;2023-05-14T12:17:18;22.00;55.70
67820;DHT22;54618;52.018;5.576;2023-05-14T12:19:46;22.00;55.60
67820;DHT22;54618;52.018;5.576;2023-05-14T12:22:14;22.00;55.60
67820;DHT22;54618;52.018;5.576;2023-05-14T12:24:41;22.00;55.60
67820;DHT22;54618;52.018;5.576;2023-05-14T12:27:08;22.00;55.60
67820;DHT22;54618;52.018;5.576;2023-05-14T12:29:36;22.00;55.70
67820;DHT22;54618;52.018;5.576;2023-05-14T12:32:02;22.00;55.70
67820;DHT22;54618;52.018;5.576;2023-05-14T12:34:32;22.00;55.80
67820;DHT22;54618;52.018;5.576;2023-05-14T12:36:58;22.10;56.30
67820;DHT22;54618;52.018;5.576;2023-05-14T12:39:23;22.10;56.30
67820;DHT22;54618;52.018;5.576;2023-05-14T12:41:49;22.10;56.30
67820;DHT22;54618;52.018;5.576;2023-05-14T12:44:15;22.10;56.20
67820;DHT22;54618;52.018;5.576;2023-05-14T12:46:40;22.10;56.10
67820;DHT22;54618;52.018;5.576;2023-05-14T12:49:06;22.20;56.30
67820;DHT22;54618;52.018;5.576;2023-05-14T12:51:32;22.20;56.20
67820;DHT22;54618;52.018;5.576;2023-05-14T12:53:57;22.20;56.40
67820;DHT22;54618;52.018;5.576;2023-05-14T12:56:23;22.20;56.50
67820;DHT22;54618;52.018;5.576;2023-05-14T12:58:53;22.20;56.40
67820;DHT22;54618;52.018;5.576;2023-05-14T13:01:19;22.20;56.40
67820;DHT22;54618;52.018;5.576;2023-05-14T13:03:45;22.20;56.40
67820;DHT22;54618;52.018;5.576;2023-05-14T13:06:10;22.10;56.40
67820;DHT22;54618;52.018;5.576;2023-05-14T13:08:36;22.20;56.40
67820;DHT22;54618;52.018;5.576;2023-05-14T13:11:01;22.10;56.50
67820;DHT22;54618;52.018;5.576;2023-05-14T13:13:27;22.10;56.60
67820;DHT22;54618;52.018;5.576;2023-05-14T13:15:52;22.10;56.60
67820;DHT22;54618;52.018;5.576;2023-05-14T13:18:18;22.10;56.60
67820;DHT22;54618;52.018;5.576;2023-05-14T13:20:45;22.10;56.60
67820;DHT22;54618;52.018;5.576;2023-05-14T13:23:11;22.10;56.50
67820;DHT22;54618;52.018;5.576;2023-05-14T13:25:36;22.10;56.50
67820;DHT22;54618;52.018;5.576;2023-05-14T13:28:02;22.10;56.50
67820;DHT22;54618;52.018;5.576;2023-05-14T13:30:27;22.10;56.50
67820;DHT22;54618;52.018;5.576;2023-05-14T13:32:53;22.10;56.40
67820;DHT22;54618;52.018;5.576;2023-05-14T13:35:18;22.10;56.40
67820;DHT22;54618;52.018;5.576;2023-05-14T13:37:44;22.10;56.40
67820;DHT22;54618;52.018;5.576;2023-05-14T13:40:10;22.00;57.00
67820;DHT22;54618;52.018;5.576;2023-05-14T13:42:36;22.10;56.40
67820;DHT22;54618;52.018;5.576;2023-05-14T13:45:04;22.10;56.40
67820;DHT22;54618;52.018;5.576;2023-05-14T13:47:30;22.00;56.40
67820;DHT22;54618;52.018;5.576;2023-05-14T13:49:55;22.00;56.40
67820;DHT22;54618;52.018;5.576;2023-05-14T13:52:21;22.00;56.40
67820;DHT22;54618;52.018;5.576;2023-05-14T13:54:47;22.00;56.40
67820;DHT22;54618;52.018;5.576;2023-05-14T13:57:13;22.00;56.40
67820;DHT22;54618;52.018;5.576;2023-05-14T13:59:38;22.00;56.40
67820;DHT22;54618;52.018;5.576;2023-05-14T14:02:04;22.00;56.40
67820;DHT22;54618;52.018;5.576;2023-05-14T14:04:30;22.00;56.60
67820;DHT22;54618;52.018;5.576;2023-05-14T14:06:56;22.00;56.50
67820;DHT22;54618;52.018;5.576;2023-05-14T14:09:22;22.00;56.50
67820;DHT22;54618;52.018;5.576;2023-05-14T14:11:48;22.00;56.40
67820;DHT22;54618;52.018;5.576;2023-05-14T14:14:14;22.00;56.40
67820;DHT22;54618;52.018;5.576;2023-05-14T14:16:39;22.00;56.50
67820;DHT22;54618;52.018;5.576;2023-05-14T14:19:05;22.00;56.60
67820;DHT22;54618;52.018;5.576;2023-05-14T14:21:31;22.00;56.60
67820;DHT22;54618;52.018;5.576;2023-05-14T14:23:57;22.00;56.60
67820;DHT22;54618;52.018;5.576;2023-05-14T14:26:22;22.00;56.60
67820;DHT22;54618;52.018;5.576;2023-05-14T14:28:48;22.00;56.50
67820;DHT22;54618;52.018;5.576;2023-05-14T14:31:14;22.00;56.60
67820;DHT22;54618;52.018;5.576;2023-05-14T14:33:40;22.00;56.50
67820;DHT22;54618;52.018;5.576;2023-05-14T14:36:05;22.00;56.50
67820;DHT22;54618;52.018;5.576;2023-05-14T14:38:31;22.00;56.50
67820;DHT22;54618;52.018;5.576;2023-05-14T14:40:57;21.90;56.40
67820;DHT22;54618;52.018;5.576;2023-05-14T14:43:23;21.90;56.40
67820;DHT22;54618;52.018;5.576;2023-05-14T14:45:49;21.90;56.40
67820;DHT22;54618;52.018;5.576;2023-05-14T14:48:29;21.90;56.40
67820;DHT22;54618;52.018;5.576;2023-05-14T14:51:07;21.90;56.40
67820;DHT22;54618;52.018;5.576;2023-05-14T14:53:34;22.00;56.50
67820;DHT22;54618;52.018;5.576;2023-05-14T14:56:00;22.00;56.40
67820;DHT22;54618;52.018;5.576;2023-05-14T14:58:26;22.00;56.40
67820;DHT22;54618;52.018;5.576;2023-05-14T15:00:53;22.00;56.30
67820;DHT22;54618;52.018;5.576;2023-05-14T15:03:19;22.10;56.70
67820;DHT22;54618;52.018;5.576;2023-05-14T15:05:45;22.10;56.60
67820;DHT22;54618;52.018;5.576;2023-05-14T15:08:11;22.10;56.70
67820;DHT22;54618;52.018;5.576;2023-05-14T15:10:37;22.10;56.30
67820;DHT22;54618;52.018;5.576;2023-05-14T15:13:04;22.10;55.90
67820;DHT22;54618;52.018;5.576;2023-05-14T15:15:31;22.10;55.90
67820;DHT22;54618;52.018;5.576;2023-05-14T15:17:56;22.10;55.90
67820;DHT22;54618;52.018;5.576;2023-05-14T15:20:22;22.10;56.00
67820;DHT22;54618;52.018;5.576;2023-05-14T15:22:47;22.10;56.50
67820;DHT22;54618;52.018;5.576;2023-05-14T15:25:17;22.10;56.30
67820;DHT22;54618;52.018;5.576;2023-05-14T15:27:42;22.10;56.30
67820;DHT22;54618;52.018;5.576;2023-05-14T15:30:09;22.20;56.60
67820;DHT22;54618;52.018;5.576;2023-05-14T15:32:34;22.20;56.50
67820;DHT22;54618;52.018;5.576;2023-05-14T15:35:00;22.20;56.40
67820;DHT22;54618;52.018;5.576;2023-05-14T15:37:25;22.20;56.60